Time;durP1;ratioP1;P1;durP2;ratioP2;P2;SDS_P1;SDS_P2;PMS_P1;PMS_P2;Temp;Humidity;BMP_temperature;BMP_pressure;BME280_temperature;BME280_humidity;BME280_pressure;Samples;Min_cycle;Max_cycle;Signal;HPM_P1;HPM_P2
2023/11/12 00:00:59;;;;;;;2.42;0.93;;;5.30;74.50;;;;;;5092593;28;20274;-74
2023/11/12 00:03:26;;;;;;;2.80;1.20;;;5.30;74.50;;;;;;5095372;28;20190;-74
2023/11/12 00:05:53;;;;;;;2.58;1.10;;;5.40;74.50;;;;;;5096020;28;20221;-75
2023/11/12 00:08:21;;;;;;;3.45;1.40;;;5.30;74.80;;;;;;5096172;28;20723;-74
2023/11/12 00:10:50;;;;;;;2.30;1.10;;;5.30;73.90;;;;;;5096388;28;20735;-74
2023/11/12 00:13:17;;;;;;;2.20;1.02;;;5.30;73.70;;;;;;5096502;28;20592;-74
2023/11/12 00:15:44;;;;;;;2.47;1.40;;;5.30;73.50;;;;;;5096282;28;20193;-74
2023/11/12 00:18:17;;;;;;;2.75;1.20;;;5.40;73.20;;;;;;5095961;28;20709;-74
2023/11/12 00:20:44;;;;;;;2.88;1.58;;;5.30;72.60;;;;;;5096156;28;20218;-74
2023/11/12 00:23:13;;;;;;;2.40;1.25;;;5.30;72.20;;;;;;5095807;28;20194;-74
2023/11/12 00:25:43;;;;;;;2.40;1.20;;;5.30;71.90;;;;;;5095746;28;20709;-74
2023/11/12 00:28:11;;;;;;;3.72;1.48;;;5.30;71.80;;;;;;5096216;28;20248;-75
2023/11/12 00:30:52;;;;;;;6.97;2.65;;;5.30;71.60;;;;;;5096191;28;20193;-74
2023/11/12 00:33:20;;;;;;;3.53;1.50;;;5.20;72.00;;;;;;5095613;28;20724;-74
2023/11/12 00:35:47;;;;;;;3.08;1.40;;;5.20;72.40;;;;;;5095571;28;20193;-74
2023/11/12 00:38:22;;;;;;;4.57;1.33;;;5.10;72.80;;;;;;5095942;28;20221;-75
2023/11/12 00:40:49;;;;;;;2.70;1.25;;;5.10;73.40;;;;;;5095572;28;20666;-74
2023/11/12 00:43:19;;;;;;;2.40;1.08;;;5.10;73.50;;;;;;5095973;28;20190;-73
2023/11/12 00:45:56;;;;;;;2.22;1.10;;;5.10;73.60;;;;;;5095819;28;20218;-74
2023/11/12 00:48:23;;;;;;;2.70;1.15;;;5.20;73.70;;;;;;5095731;28;20542;-74
2023/11/12 00:50:50;;;;;;;2.50;1.17;;;5.20;73.70;;;;;;5095649;28;20238;-74
2023/11/12 00:53:17;;;;;;;4.28;1.35;;;5.30;73.50;;;;;;5095651;28;20277;-73
2023/11/12 00:55:44;;;;;;;2.78;1.52;;;5.30;73.20;;;;;;5095557;28;20258;-75
2023/11/12 00:58:11;;;;;;;3.80;1.40;;;5.30;73.10;;;;;;5095527;28;20193;-74
2023/11/12 01:00:41;;;;;;;3.15;1.20;;;5.30;73.10;;;;;;5095512;28;20282;-74
2023/11/12 01:03:08;;;;;;;3.53;1.65;;;5.40;72.40;;;;;;5095306;28;20220;-73
2023/11/12 01:05:35;;;;;;;3.50;1.85;;;5.30;71.60;;;;;;5095298;28;20213;-74
2023/11/12 01:08:03;;;;;;;6.00;1.90;;;5.30;71.10;;;;;;5095427;28;20190;-73
2023/11/12 01:10:30;;;;;;;3.17;1.52;;;5.20;71.10;;;;;;5094970;28;20185;-74
2023/11/12 01:12:58;;;;;;;3.05;1.60;;;5.10;71.40;;;;;;5095288;28;20197;-74
2023/11/12 01:15:26;;;;;;;4.07;1.52;;;5.00;71.80;;;;;;5094315;28;20550;-74
2023/11/12 01:17:55;;;;;;;2.75;1.45;;;4.90;72.80;;;;;;5095191;28;20550;-74
2023/11/12 01:20:22;;;;;;;3.53;1.85;;;4.90;73.70;;;;;;5094515;28;20225;-74
2023/11/12 01:22:50;;;;;;;4.75;2.00;;;4.90;73.50;;;;;;5094680;28;20189;-74
2023/11/12 01:25:17;;;;;;;5.07;1.90;;;4.90;73.70;;;;;;5094595;28;20254;-73
2023/11/12 01:27:44;;;;;;;3.00;1.60;;;4.90;74.10;;;;;;5094980;28;20329;-74
2023/11/12 01:30:15;;;;;;;4.28;1.83;;;4.90;74.40;;;;;;5094999;28;20190;-74
2023/11/12 01:32:42;;;;;;;2.80;1.45;;;4.90;74.60;;;;;;5094854;28;20189;-74
2023/11/12 01:35:11;;;;;;;3.72;1.50;;;5.00;74.90;;;;;;5094819;28;20243;-74
2023/11/12 01:37:38;;;;;;;3.55;1.63;;;5.00;74.80;;;;;;5094447;28;20227;-74
2023/11/12 01:40:06;;;;;;;3.60;1.75;;;5.00;74.70;;;;;;5094702;28;20185;-73
2023/11/12 01:42:33;;;;;;;3.33;1.30;;;5.10;74.80;;;;;;5094656;28;20190;-74
2023/11/12 01:45:00;;;;;;;2.60;1.60;;;5.10;75.00;;;;;;5094876;28;20221;-74
2023/11/12 01:47:28;;;;;;;2.50;1.20;;;5.10;75.20;;;;;;5094195;28;20230;-74
2023/11/12 01:49:55;;;;;;;2.75;1.33;;;5.10;75.20;;;;;;5094335;28;20189;-74
2023/11/12 01:52:24;;;;;;;3.67;1.45;;;5.10;75.20;;;;;;5094507;28;20227;-73
2023/11/12 01:54:51;;;;;;;2.75;1.30;;;5.10;75.00;;;;;;5094143;28;20223;-74
2023/11/12 01:57:19;;;;;;;4.13;1.42;;;5.10;74.90;;;;;;5094399;28;20558;-75
2023/11/12 01:59:48;;;;;;;3.60;1.45;;;5.10;75.00;;;;;;5094499;28;20281;-74
2023/11/12 02:02:19;;;;;;;2.35;1.05;;;5.20;74.50;;;;;;5094135;28;20247;-74
2023/11/12 02:04:46;;;;;;;2.53;1.10;;;5.20;74.40;;;;;;5094230;28;20209;-74
2023/11/12 02:07:13;;;;;;;2.78;1.30;;;5.20;74.70;;;;;;5094163;28;20254;-73
2023/11/12 02:09:42;;;;;;;2.03;0.80;;;5.20;74.50;;;;;;5094139;28;20246;-73
2023/11/12 02:12:09;;;;;;;3.40;1.52;;;5.20;74.20;;;;;;5094055;28;20240;-73
2023/11/12 02:14:38;;;;;;;3.05;1.50;;;5.10;74.30;;;;;;5094079;28;20189;-73
2023/11/12 02:17:05;;;;;;;2.80;1.27;;;5.10;74.40;;;;;;5093990;28;20217;-74
2023/11/12 02:19:32;;;;;;;2.58;1.42;;;5.10;74.30;;;;;;5094026;28;20226;-74
2023/11/12 02:21:59;;;;;;;2.47;1.08;;;5.00;74.40;;;;;;5094010;28;20286;-73
2023/11/12 02:24:27;;;;;;;3.47;1.20;;;4.90;74.50;;;;;;5093553;28;20601;-74
2023/11/12 02:26:56;;;;;;;3.03;1.42;;;4.90;74.60;;;;;;5093369;28;20232;-73
2023/11/12 02:29:26;;;;;;;2.35;1.10;;;4.90;74.60;;;;;;5093787;28;20226;-73
2023/11/12 02:31:53;;;;;;;2.40;1.10;;;4.80;74.10;;;;;;5093805;28;20198;-73
2023/11/12 02:34:21;;;;;;;2.80;1.35;;;4.70;74.10;;;;;;5093677;28;20189;-73
2023/11/12 02:36:48;;;;;;;2.40;1.27;;;4.70;74.60;;;;;;5093434;28;20189;-73
2023/11/12 02:39:20;;;;;;;2.63;1.20;;;4.70;74.00;;;;;;5093744;28;20193;-73
2023/11/12 02:41:49;;;;;;;3.65;1.33;;;4.50;74.50;;;;;;5093390;28;20234;-73
2023/11/12 02:44:16;;;;;;;2.95;1.10;;;4.40;75.00;;;;;;5093252;28;20193;-74
2023/11/12 02:46:45;;;;;;;3.50;1.50;;;4.40;75.10;;;;;;5093468;28;20563;-74
2023/11/12 02:49:33;;;;;;;12.40;5.05;;;4.40;75.30;;;;;;5093052;28;20194;-73
2023/11/12 02:52:00;;;;;;;18.80;5.78;;;4.30;75.20;;;;;;5093498;28;20533;-73
2023/11/12 02:54:27;;;;;;;24.20;9.40;;;4.20;75.30;;;;;;5093234;28;20254;-73
2023/11/12 02:56:56;;;;;;;22.30;9.15;;;4.20;75.30;;;;;;5093698;28;20193;-73
2023/11/12 02:59:23;;;;;;;19.02;8.25;;;4.10;75.00;;;;;;5093112;28;20274;-74
2023/11/12 03:01:50;;;;;;;19.02;8.38;;;4.00;74.90;;;;;;5093104;28;20375;-74
2023/11/12 03:04:17;;;;;;;16.45;6.88;;;4.00;74.70;;;;;;5092999;28;20225;-73
2023/11/12 03:06:44;;;;;;;9.68;5.40;;;3.90;74.50;;;;;;5092889;28;20212;-73
2023/11/12 03:09:11;;;;;;;9.98;4.38;;;3.80;74.50;;;;;;5093280;28;20222;-74
2023/11/12 03:11:39;;;;;;;6.60;2.75;;;3.80;74.30;;;;;;5093355;28;20563;-74
2023/11/12 03:14:08;;;;;;;2.97;1.00;;;3.70;74.30;;;;;;5092925;28;20197;-74
2023/11/12 03:16:35;;;;;;;3.00;1.50;;;3.70;74.50;;;;;;5092988;28;20205;-74
2023/11/12 03:19:02;;;;;;;3.28;1.20;;;3.70;74.70;;;;;;5092886;28;20227;-74
2023/11/12 03:21:29;;;;;;;4.72;1.33;;;3.60;74.70;;;;;;5092815;28;20290;-73
2023/11/12 03:23:56;;;;;;;3.05;1.35;;;3.60;74.90;;;;;;5092835;28;20246;-73
2023/11/12 03:26:24;;;;;;;2.40;1.33;;;3.60;75.50;;;;;;5093113;28;20209;-73
2023/11/12 03:28:51;;;;;;;2.60;1.38;;;3.60;75.40;;;;;;5093177;28;20193;-73
2023/11/12 03:31:20;;;;;;;2.70;1.27;;;3.60;75.30;;;;;;5093048;28;20185;-73
2023/11/12 03:33:47;;;;;;;2.00;1.00;;;3.60;75.40;;;;;;5093148;28;20243;-73
2023/11/12 03:36:15;;;;;;;2.75;1.33;;;3.60;75.20;;;;;;5092749;28;20655;-73
2023/11/12 03:38:43;;;;;;;2.10;0.90;;;3.60;75.80;;;;;;5096264;28;20297;-74
2023/11/12 03:41:12;;;;;;;2.38;1.25;;;3.50;76.20;;;;;;5097011;28;20221;-74
2023/11/12 03:43:41;;;;;;;2.55;1.40;;;3.50;76.90;;;;;;5097002;28;20614;-73
2023/11/12 03:46:09;;;;;;;2.20;1.20;;;3.50;77.20;;;;;;5096835;28;20271;-74
2023/11/12 03:48:37;;;;;;;2.10;1.00;;;3.50;77.30;;;;;;5096778;28;20243;-74
2023/11/12 03:51:05;;;;;;;2.35;1.10;;;3.40;77.80;;;;;;5096596;28;20182;-73
2023/11/12 03:53:32;;;;;;;3.85;1.45;;;3.30;78.10;;;;;;5096838;28;20215;-74
2023/11/12 03:55:59;;;;;;;3.60;1.33;;;3.30;78.40;;;;;;5096399;28;20246;-73
2023/11/12 03:58:26;;;;;;;2.80;1.60;;;3.40;78.00;;;;;;5096734;28;20193;-73
2023/11/12 04:00:53;;;;;;;2.88;1.40;;;3.40;77.40;;;;;;5096376;28;20239;-73
2023/11/12 04:03:21;;;;;;;2.97;1.33;;;3.30;77.20;;;;;;5096530;28;20246;-73
2023/11/12 04:05:49;;;;;;;2.20;1.10;;;3.40;76.40;;;;;;5096519;28;20213;-74
2023/11/12 04:08:16;;;;;;;2.20;1.20;;;3.40;76.40;;;;;;5096483;28;20239;-72
2023/11/12 04:10:43;;;;;;;2.05;0.93;;;3.30;76.60;;;;;;5096427;28;20197;-73
2023/11/12 04:13:13;;;;;;;2.53;1.20;;;3.30;76.70;;;;;;5096049;28;20238;-74
2023/11/12 04:15:40;;;;;;;2.78;1.70;;;3.20;77.30;;;;;;5096365;28;20205;-74
2023/11/12 04:18:07;;;;;;;2.63;1.35;;;3.10;77.90;;;;;;5095934;28;20612;-73
2023/11/12 04:20:34;;;;;;;3.85;1.15;;;3.10;77.90;;;;;;5095819;28;20213;-73
2023/11/12 04:23:02;;;;;;;2.83;1.73;;;3.10;78.00;;;;;;5096162;28;20190;-73
2023/11/12 04:25:30;;;;;;;3.90;1.88;;;3.10;78.10;;;;;;5096071;28;20209;-73
2023/11/12 04:27:57;;;;;;;3.00;1.45;;;3.10;78.10;;;;;;5095827;28;20196;-74
2023/11/12 04:30:24;;;;;;;2.35;1.05;;;3.10;78.00;;;;;;5095926;28;20238;-73
2023/11/12 04:32:51;;;;;;;2.33;1.00;;;3.10;77.70;;;;;;5096038;28;20189;-73
2023/11/12 04:35:19;;;;;;;2.00;0.90;;;3.00;77.00;;;;;;5095712;28;20224;-74
2023/11/12 04:37:46;;;;;;;2.45;1.20;;;3.00;75.80;;;;;;5095619;28;20276;-74
2023/11/12 04:40:16;;;;;;;2.75;1.30;;;2.90;74.80;;;;;;5095823;28;20193;-73
2023/11/12 04:42:43;;;;;;;2.40;1.00;;;2.70;74.80;;;;;;5095904;28;20244;-73
2023/11/12 04:45:10;;;;;;;2.20;1.10;;;2.70;75.40;;;;;;5096077;28;20231;-74
2023/11/12 04:47:37;;;;;;;2.42;1.20;;;2.60;75.70;;;;;;5095951;28;20281;-74
2023/11/12 04:50:05;;;;;;;2.80;1.58;;;2.60;75.90;;;;;;5094659;28;20254;-73
2023/11/12 04:52:32;;;;;;;2.60;1.55;;;2.50;76.00;;;;;;5095333;28;20190;-74
2023/11/12 04:54:59;;;;;;;3.53;1.67;;;2.60;76.40;;;;;;5095727;28;20194;-73
2023/11/12 04:57:28;;;;;;;2.15;1.13;;;2.50;76.40;;;;;;5095257;28;20200;-73
2023/11/12 04:59:55;;;;;;;3.95;1.58;;;2.50;77.00;;;;;;5095493;28;20262;-73
2023/11/12 05:02:23;;;;;;;3.15;1.27;;;2.50;77.40;;;;;;5095374;28;20270;-75
2023/11/12 05:04:51;;;;;;;2.50;1.30;;;2.50;77.30;;;;;;5095178;28;20221;-73
2023/11/12 05:07:18;;;;;;;2.88;1.20;;;2.50;77.70;;;;;;5095405;28;20220;-74
2023/11/12 05:09:45;;;;;;;2.70;1.20;;;2.60;77.90;;;;;;5094943;28;20186;-74
2023/11/12 05:12:15;;;;;;;2.10;1.08;;;2.70;77.30;;;;;;5095282;28;20276;-74
2023/11/12 05:14:43;;;;;;;2.88;1.63;;;2.60;77.50;;;;;;5095005;28;20231;-73
2023/11/12 05:17:10;;;;;;;3.25;1.55;;;2.50;78.00;;;;;;5095196;28;20243;-74
2023/11/12 05:19:37;;;;;;;3.22;1.35;;;2.50;78.60;;;;;;5095142;28;20186;-73
2023/11/12 05:22:04;;;;;;;2.63;1.60;;;2.50;79.00;;;;;;5094829;28;20235;-73
2023/11/12 05:24:31;;;;;;;6.40;2.22;;;2.60;79.20;;;;;;5095014;28;20225;-73
2023/11/12 05:26:58;;;;;;;3.72;1.88;;;2.60;79.40;;;;;;5094465;28;20621;-73
2023/11/12 05:29:25;;;;;;;3.78;1.58;;;2.70;79.20;;;;;;5094908;28;20189;-73
2023/11/12 05:31:54;;;;;;;3.25;1.55;;;2.70;78.70;;;;;;5094687;28;20639;-74
2023/11/12 05:34:21;;;;;;;2.45;1.40;;;2.70;77.70;;;;;;5094844;28;20239;-73
2023/11/12 05:36:48;;;;;;;3.08;1.75;;;2.70;76.30;;;;;;5094437;28;20247;-73
2023/11/12 05:39:15;;;;;;;2.88;1.65;;;2.60;75.60;;;;;;5094434;28;20190;-73
2023/11/12 05:41:42;;;;;;;2.90;1.48;;;2.60;75.70;;;;;;5094401;28;20193;-74
2023/11/12 05:44:09;;;;;;;3.30;1.50;;;2.70;76.20;;;;;;5094306;28;20232;-74
2023/11/12 05:46:36;;;;;;;2.67;1.50;;;2.70;76.60;;;;;;5094513;28;20274;-74
2023/11/12 05:49:04;;;;;;;2.45;1.50;;;2.80;77.00;;;;;;5094187;28;20193;-74
2023/11/12 05:51:31;;;;;;;4.00;1.80;;;2.80;77.00;;;;;;5094211;28;20235;-74
2023/11/12 05:53:58;;;;;;;3.08;1.52;;;2.80;76.80;;;;;;5094162;28;20189;-73
2023/11/12 05:56:29;;;;;;;3.00;1.40;;;2.80;76.70;;;;;;5094544;28;20189;-74
2023/11/12 05:58:57;;;;;;;2.65;1.27;;;2.80;77.00;;;;;;5094423;28;20593;-74
2023/11/12 06:01:24;;;;;;;4.68;1.55;;;2.80;77.30;;;;;;5093657;28;20201;-74
2023/11/12 06:03:52;;;;;;;3.85;1.30;;;2.80;77.30;;;;;;5093930;28;20285;-73
2023/11/12 06:06:20;;;;;;;2.67;1.23;;;2.80;77.00;;;;;;5093767;28;20205;-74
2023/11/12 06:08:47;;;;;;;6.32;1.90;;;2.80;76.70;;;;;;5093826;28;20240;-74
2023/11/12 06:11:17;;;;;;;2.50;1.30;;;2.90;76.50;;;;;;5093592;28;20194;-73
2023/11/12 06:13:44;;;;;;;2.63;1.30;;;2.90;75.90;;;;;;5093923;28;20227;-73
2023/11/12 06:16:11;;;;;;;2.92;1.42;;;2.90;75.60;;;;;;5093683;28;20270;-74
2023/11/12 06:18:38;;;;;;;3.20;1.77;;;3.00;75.30;;;;;;5094094;28;20201;-73
2023/11/12 06:21:06;;;;;;;2.47;1.50;;;3.00;75.30;;;;;;5094052;28;20221;-74
2023/11/12 06:23:34;;;;;;;2.85;1.70;;;2.90;74.70;;;;;;5093849;28;20193;-73
2023/11/12 06:26:01;;;;;;;3.60;1.30;;;2.90;75.00;;;;;;5093517;28;20210;-75
2023/11/12 06:28:28;;;;;;;2.20;1.00;;;2.90;75.10;;;;;;5094002;28;20525;-74
2023/11/12 06:30:57;;;;;;;2.65;1.13;;;2.90;75.30;;;;;;5093296;28;20235;-73
2023/11/12 06:33:24;;;;;;;2.10;1.00;;;2.90;75.30;;;;;;5093447;28;20564;-73
2023/11/12 06:35:53;;;;;;;2.65;0.93;;;2.90;75.40;;;;;;5093601;28;20238;-74
2023/11/12 06:38:20;;;;;;;3.30;1.40;;;2.90;75.00;;;;;;5093525;28;20254;-75
2023/11/12 06:40:49;;;;;;;2.40;1.10;;;2.90;75.20;;;;;;5093404;28;20262;-74
2023/11/12 06:43:16;;;;;;;2.20;1.00;;;2.90;74.40;;;;;;5093417;28;20367;-74
2023/11/12 06:45:43;;;;;;;3.28;1.40;;;2.80;74.40;;;;;;5092724;28;20185;-74
2023/11/12 06:48:10;;;;;;;2.72;1.38;;;2.90;74.00;;;;;;5093063;28;20288;-74
2023/11/12 06:50:37;;;;;;;6.60;2.30;;;2.90;73.60;;;;;;5093433;28;20196;-73
2023/11/12 06:53:04;;;;;;;10.02;5.15;;;2.90;73.90;;;;;;5092996;28;20221;-74
2023/11/12 06:55:33;;;;;;;6.30;1.77;;;2.90;74.30;;;;;;5092830;28;20701;-74
2023/11/12 06:58:01;;;;;;;3.55;1.80;;;3.00;74.90;;;;;;5093221;28;20258;-74
2023/11/12 07:00:33;;;;;;;2.90;1.30;;;2.90;75.30;;;;;;5092849;28;20710;-73
2023/11/12 07:03:00;;;;;;;2.95;1.65;;;3.00;75.80;;;;;;5092781;28;20193;-74
2023/11/12 07:05:30;;;;;;;3.72;2.17;;;3.00;75.60;;;;;;5092911;28;20242;-74
2023/11/12 07:07:57;;;;;;;5.60;2.80;;;3.00;75.30;;;;;;5092845;28;20675;-73
2023/11/12 07:10:24;;;;;;;7.45;4.20;;;3.10;75.60;;;;;;5093110;28;20201;-73
2023/11/12 07:12:54;;;;;;;9.30;3.92;;;3.10;74.80;;;;;;5094768;28;20305;-74
2023/11/12 07:15:25;;;;;;;5.55;3.20;;;3.10;75.00;;;;;;5097654;28;20262;-73
2023/11/12 07:17:52;;;;;;;5.60;3.80;;;3.10;74.80;;;;;;5097699;28;20182;-74
2023/11/12 07:20:21;;;;;;;6.70;3.75;;;3.20;75.10;;;;;;5096821;28;20229;-74
2023/11/12 07:22:51;;;;;;;6.53;4.45;;;3.30;75.20;;;;;;5097407;28;20201;-74
2023/11/12 07:25:18;;;;;;;4.40;2.95;;;3.40;74.90;;;;;;5097424;28;20189;-74
2023/11/12 07:27:45;;;;;;;4.20;2.60;;;3.40;74.10;;;;;;5096993;28;20221;-74
2023/11/12 07:30:13;;;;;;;4.95;3.58;;;3.40;74.30;;;;;;5097079;28;20197;-74
2023/11/12 07:32:41;;;;;;;5.55;3.50;;;3.40;74.10;;;;;;5096550;28;20612;-74
2023/11/12 07:35:09;;;;;;;10.45;6.35;;;3.50;74.20;;;;;;5096955;28;20182;-73
2023/11/12 07:37:37;;;;;;;11.20;6.28;;;3.50;73.90;;;;;;5096548;28;20189;-74
2023/11/12 07:40:10;;;;;;;11.23;5.88;;;3.50;73.70;;;;;;5096780;28;20232;-74
2023/11/12 07:42:40;;;;;;;11.00;5.75;;;3.60;73.90;;;;;;5096442;28;20178;-74
2023/11/12 07:45:09;;;;;;;7.88;5.05;;;3.70;74.20;;;;;;5096930;28;20202;-74
2023/11/12 07:47:36;;;;;;;7.80;5.07;;;3.80;74.10;;;;;;5096255;28;20214;-74
2023/11/12 07:50:05;;;;;;;8.00;5.22;;;3.90;73.50;;;;;;5096637;28;20247;-74
2023/11/12 07:52:33;;;;;;;7.10;4.05;;;4.10;73.40;;;;;;5096388;28;20640;-74
2023/11/12 07:55:08;;;;;;;9.73;4.20;;;4.20;73.00;;;;;;5096667;28;20535;-74
2023/11/12 07:57:35;;;;;;;6.70;3.88;;;4.30;71.80;;;;;;5096191;28;20220;-74
2023/11/12 08:00:02;;;;;;;10.30;6.05;;;4.40;71.60;;;;;;5096561;28;20189;-74
2023/11/12 08:02:29;;;;;;;7.85;4.05;;;4.50;71.80;;;;;;5096037;28;20724;-75
2023/11/12 08:04:56;;;;;;;5.70;2.97;;;4.60;71.70;;;;;;5096324;28;20231;-74
2023/11/12 08:07:25;;;;;;;5.00;2.60;;;4.80;71.50;;;;;;5095881;28;20213;-74
2023/11/12 08:09:52;;;;;;;4.80;2.20;;;4.80;70.70;;;;;;5095975;28;20189;-74
2023/11/12 08:12:19;;;;;;;4.53;2.40;;;4.80;70.10;;;;;;5096310;28;20262;-74
2023/11/12 08:14:46;;;;;;;4.05;2.70;;;4.90;70.50;;;;;;5095909;28;20247;-74
2023/11/12 08:17:13;;;;;;;6.72;4.25;;;5.00;70.50;;;;;;5096192;28;20227;-74
2023/11/12 08:19:41;;;;;;;5.22;3.15;;;5.10;71.10;;;;;;5095603;28;20234;-74
2023/11/12 08:22:08;;;;;;;3.50;2.22;;;5.20;71.40;;;;;;5096210;28;20201;-74
2023/11/12 08:24:37;;;;;;;5.97;1.90;;;5.30;71.30;;;;;;5095629;28;20193;-74
2023/11/12 08:27:04;;;;;;;4.50;2.17;;;5.40;70.50;;;;;;5095624;28;20245;-74
2023/11/12 08:29:31;;;;;;;6.22;2.65;;;5.40;70.20;;;;;;5095949;28;20247;-73
2023/11/12 08:31:58;;;;;;;5.07;2.42;;;5.50;70.30;;;;;;5095491;28;20196;-74
2023/11/12 08:34:25;;;;;;;5.45;3.13;;;5.60;70.50;;;;;;5095737;28;20190;-74
2023/11/12 08:36:53;;;;;;;7.90;3.47;;;5.80;70.50;;;;;;5095508;28;20198;-74
2023/11/12 08:39:20;;;;;;;4.57;2.80;;;5.90;69.90;;;;;;5095675;28;20193;-74
2023/11/12 08:41:49;;;;;;;5.38;3.05;;;6.10;69.20;;;;;;5095382;28;20225;-74
2023/11/12 08:44:17;;;;;;;6.00;3.70;;;6.30;67.70;;;;;;5095348;28;20665;-74
2023/11/12 08:46:45;;;;;;;9.05;7.07;;;6.50;66.90;;;;;;5095266;28;20743;-74
2023/11/12 08:49:12;;;;;;;11.75;5.70;;;6.70;66.60;;;;;;5095413;28;20185;-75
2023/11/12 08:51:39;;;;;;;4.97;3.60;;;6.90;66.60;;;;;;5095227;28;20197;-74
2023/11/12 08:54:08;;;;;;;5.45;3.40;;;7.10;65.70;;;;;;5095115;28;20269;-74
2023/11/12 08:56:35;;;;;;;5.43;2.83;;;7.40;64.50;;;;;;5095098;28;20238;-74
2023/11/12 08:59:07;;;;;;;3.90;2.30;;;7.80;63.50;;;;;;5095345;28;20186;-74
2023/11/12 09:01:39;;;;;;;4.25;2.45;;;8.20;62.40;;;;;;5095077;28;20181;-74
2023/11/12 09:04:07;;;;;;;2.83;1.90;;;8.50;61.00;;;;;;5094804;28;20679;-74
2023/11/12 09:06:34;;;;;;;4.75;2.28;;;8.70;59.50;;;;;;5095328;28;20201;-74
2023/11/12 09:09:05;;;;;;;4.60;2.60;;;9.00;58.00;;;;;;5094842;28;20225;-74
2023/11/12 09:11:32;;;;;;;3.13;2.10;;;9.20;57.70;;;;;;5094934;28;20186;-74
2023/11/12 09:14:00;;;;;;;4.57;2.70;;;9.50;55.20;;;;;;5094882;28;20190;-75
2023/11/12 09:16:29;;;;;;;4.28;2.67;;;9.60;55.10;;;;;;5094931;28;20189;-75
2023/11/12 09:18:56;;;;;;;4.60;1.92;;;9.80;55.00;;;;;;5094914;28;20185;-75
2023/11/12 09:21:23;;;;;;;6.00;3.10;;;10.10;53.90;;;;;;5094445;28;20252;-74
2023/11/12 09:23:52;;;;;;;4.45;2.40;;;10.20;53.60;;;;;;5094955;28;20532;-73
2023/11/12 09:26:22;;;;;;;2.80;2.10;;;10.30;53.90;;;;;;5094485;28;20189;-73
2023/11/12 09:28:51;;;;;;;4.35;2.20;;;10.50;52.70;;;;;;5094351;28;20217;-74
2023/11/12 09:31:19;;;;;;;3.60;2.35;;;10.60;51.90;;;;;;5094417;28;20584;-73
2023/11/12 09:33:47;;;;;;;3.70;1.80;;;10.70;52.00;;;;;;5094269;28;20717;-74
2023/11/12 09:36:17;;;;;;;3.47;2.28;;;10.90;51.60;;;;;;5093735;28;20193;-74
2023/11/12 09:38:44;;;;;;;4.63;2.10;;;11.10;50.90;;;;;;5094460;28;20240;-74
2023/11/12 09:41:14;;;;;;;4.97;2.53;;;11.40;50.10;;;;;;5094168;28;20227;-73
2023/11/12 09:43:42;;;;;;;4.28;2.00;;;11.60;49.70;;;;;;5094058;28;20616;-74
2023/11/12 09:46:09;;;;;;;3.72;2.28;;;11.50;48.20;;;;;;5094039;28;20232;-74
2023/11/12 09:48:39;;;;;;;4.85;3.00;;;11.30;47.70;;;;;;5093913;28;20218;-73
2023/11/12 09:51:09;;;;;;;4.95;2.45;;;10.90;48.00;;;;;;5094662;28;20280;-73
2023/11/12 09:53:39;;;;;;;4.35;2.00;;;10.70;48.80;;;;;;5093932;28;20624;-74
2023/11/12 09:56:09;;;;;;;4.80;2.50;;;10.40;50.10;;;;;;5094131;28;20200;-73
2023/11/12 09:58:36;;;;;;;4.40;2.50;;;10.10;50.20;;;;;;5094101;28;20284;-73
2023/11/12 10:01:06;;;;;;;4.95;2.40;;;9.90;52.00;;;;;;5094133;28;20281;-73
2023/11/12 10:03:34;;;;;;;4.20;2.25;;;9.70;52.70;;;;;;5094123;28;20617;-73
2023/11/12 10:06:03;;;;;;;5.28;2.55;;;9.50;52.00;;;;;;5094149;28;20212;-73
2023/11/12 10:08:34;;;;;;;3.83;2.40;;;9.30;52.40;;;;;;5093906;28;20210;-73
2023/11/12 10:11:15;;;;;;;3.42;2.45;;;9.10;53.40;;;;;;5094062;28;20173;-73
2023/11/12 10:13:42;;;;;;;4.18;2.20;;;9.00;54.50;;;;;;5093875;28;20281;-73
2023/11/12 10:16:23;;;;;;;6.88;4.20;;;8.80;54.40;;;;;;5093942;28;20524;-73
2023/11/12 10:18:50;;;;;;;3.30;1.77;;;8.70;54.80;;;;;;5093864;28;20599;-73
2023/11/12 10:21:17;;;;;;;3.95;2.33;;;8.60;54.90;;;;;;5093468;28;20249;-73
2023/11/12 10:23:46;;;;;;;4.40;2.63;;;8.40;54.90;;;;;;5093680;28;20190;-73
2023/11/12 10:26:14;;;;;;;3.83;1.92;;;8.30;55.50;;;;;;5093369;28;20652;-73
2023/11/12 10:28:47;;;;;;;6.10;1.95;;;8.30;56.30;;;;;;5093317;28;20245;-73
2023/11/12 10:31:14;;;;;;;3.25;1.80;;;8.20;56.60;;;;;;5093581;28;20244;-73
2023/11/12 10:33:42;;;;;;;3.28;1.65;;;8.20;56.90;;;;;;5093637;28;20285;-73
2023/11/12 10:36:11;;;;;;;3.30;1.83;;;8.20;57.40;;;;;;5093570;28;20228;-73
2023/11/12 10:38:49;;;;;;;3.30;2.30;;;8.20;57.50;;;;;;5093851;28;20193;-73
2023/11/12 10:41:17;;;;;;;2.78;1.88;;;8.20;57.80;;;;;;5093221;28;20201;-73
2023/11/12 10:43:58;;;;;;;8.02;3.35;;;8.30;58.00;;;;;;5093244;28;20217;-73
2023/11/12 10:46:26;;;;;;;6.57;2.38;;;8.40;58.60;;;;;;5093233;28;20173;-73
2023/11/12 10:48:56;;;;;;;5.18;2.60;;;8.40;57.80;;;;;;5093085;28;20559;-73
2023/11/12 10:51:25;;;;;;;4.05;2.08;;;8.50;57.60;;;;;;5093749;28;20221;-73
2023/11/12 10:53:56;;;;;;;4.22;2.60;;;8.50;57.70;;;;;;5093474;28;20200;-73
2023/11/12 10:56:24;;;;;;;6.15;2.72;;;8.50;57.70;;;;;;5093168;28;20277;-73
2023/11/12 10:58:55;;;;;;;4.55;2.55;;;8.50;57.60;;;;;;5093002;28;20239;-73
2023/11/12 11:01:25;;;;;;;3.92;2.13;;;8.50;57.70;;;;;;5093110;28;20186;-73
2023/11/12 11:03:53;;;;;;;3.08;2.00;;;8.50;57.80;;;;;;5093269;28;20609;-73
2023/11/12 11:06:22;;;;;;;7.10;3.22;;;8.50;58.20;;;;;;5092859;28;20197;-74
2023/11/12 11:08:49;;;;;;;5.80;3.10;;;8.60;58.10;;;;;;5093206;28;20619;-73
2023/11/12 11:11:18;;;;;;;5.88;3.70;;;8.60;58.20;;;;;;5093044;28;20224;-73
2023/11/12 11:13:46;;;;;;;5.18;3.15;;;8.60;58.40;;;;;;5092931;28;20250;-73
2023/11/12 11:16:48;;;;;;;4.78;2.55;;;8.60;58.40;;;;;;5093279;28;20197;-73
2023/11/12 11:19:15;;;;;;;4.20;2.38;;;8.70;58.30;;;;;;5090505;28;20280;-73
2023/11/12 11:21:42;;;;;;;3.22;1.92;;;8.70;58.80;;;;;;5092833;28;20217;-73
2023/11/12 11:24:09;;;;;;;5.45;2.72;;;8.70;58.80;;;;;;5093166;28;20189;-73
2023/11/12 11:26:40;;;;;;;3.83;1.65;;;8.70;58.60;;;;;;5093305;28;20198;-73
2023/11/12 11:29:14;;;;;;;3.45;1.70;;;8.70;58.80;;;;;;5093131;28;20209;-73
2023/11/12 11:31:43;;;;;;;3.42;1.85;;;8.80;58.90;;;;;;5092836;28;20288;-73
2023/11/12 11:34:12;;;;;;;2.60;1.80;;;8.80;58.60;;;;;;5092904;28;20220;-73
2023/11/12 11:36:42;;;;;;;4.07;1.70;;;8.80;58.50;;;;;;5092686;28;20186;-73
2023/11/12 11:39:28;;;;;;;3.65;2.00;;;8.90;58.70;;;;;;5092807;28;20200;-73
2023/11/12 11:42:17;;;;;;;3.70;1.90;;;8.90;58.40;;;;;;5093046;28;20200;-73
2023/11/12 11:44:49;;;;;;;4.15;2.45;;;8.90;58.20;;;;;;5093015;28;20243;-73
2023/11/12 11:47:18;;;;;;;7.32;2.30;;;8.90;57.80;;;;;;5092847;28;20189;-73
2023/11/12 11:49:47;;;;;;;3.45;1.95;;;8.90;57.40;;;;;;5092809;28;20197;-73
2023/11/12 11:52:24;;;;;;;4.80;2.20;;;8.90;57.50;;;;;;5092728;28;20189;-73
2023/11/12 11:54:59;;;;;;;2.85;1.50;;;8.90;57.50;;;;;;5092864;28;20579;-73
2023/11/12 11:57:28;;;;;;;3.03;1.65;;;8.90;57.30;;;;;;5092953;28;20264;-74
2023/11/12 11:59:58;;;;;;;3.45;2.03;;;8.90;56.60;;;;;;5095678;28;20193;-73
2023/11/12 12:02:25;;;;;;;3.17;1.90;;;8.90;56.50;;;;;;5096283;28;20239;-74
2023/11/12 12:04:55;;;;;;;3.83;1.50;;;8.90;56.80;;;;;;5096647;28;20593;-73
2023/11/12 12:07:24;;;;;;;2.40;1.23;;;8.80;57.00;;;;;;5096064;28;20190;-73
2023/11/12 12:09:51;;;;;;;3.10;1.60;;;8.90;57.20;;;;;;5096080;28;20193;-73
2023/11/12 12:12:19;;;;;;;3.05;1.70;;;8.90;57.00;;;;;;5096068;28;20240;-74
2023/11/12 12:14:47;;;;;;;21.27;9.57;;;8.90;57.60;;;;;;5096519;28;20221;-74
2023/11/12 12:17:14;;;;;;;15.35;6.38;;;8.90;57.70;;;;;;5096179;28;20197;-73
2023/11/12 12:19:41;;;;;;;6.88;3.45;;;9.00;57.00;;;;;;5095988;28;20212;-73
2023/11/12 12:22:09;;;;;;;6.18;2.92;;;9.00;56.40;;;;;;5095920;28;20178;-74
2023/11/12 12:24:37;;;;;;;4.70;2.65;;;9.00;56.20;;;;;;5095706;28;20193;-73
2023/11/12 12:27:09;;;;;;;4.28;2.55;;;9.00;55.60;;;;;;5095761;28;20229;-73
2023/11/12 12:29:38;;;;;;;4.82;2.33;;;9.10;55.80;;;;;;5095947;28;20248;-73
2023/11/12 12:32:17;;;;;;;5.35;3.85;;;9.10;55.90;;;;;;5095561;28;20189;-73
2023/11/12 12:34:53;;;;;;;3.40;1.60;;;9.10;56.00;;;;;;5095823;28;20185;-73
2023/11/12 12:37:21;;;;;;;6.32;1.98;;;9.10;55.80;;;;;;5095468;28;20650;-73
2023/11/12 12:39:50;;;;;;;3.33;1.65;;;9.10;55.40;;;;;;5095337;28;20193;-73
2023/11/12 12:42:19;;;;;;;2.65;1.27;;;9.00;55.60;;;;;;5095574;28;20285;-73
2023/11/12 12:44:50;;;;;;;2.75;1.65;;;9.00;55.80;;;;;;5095754;28;20204;-73
2023/11/12 12:47:35;;;;;;;4.22;2.00;;;9.00;55.60;;;;;;5095382;28;20246;-73
2023/11/12 12:50:15;;;;;;;4.05;1.77;;;9.00;55.30;;;;;;5095619;28;20548;-73
2023/11/12 12:52:44;;;;;;;3.22;1.50;;;9.00;55.10;;;;;;5095610;28;20186;-73
2023/11/12 12:55:16;;;;;;;2.92;1.45;;;9.00;55.00;;;;;;5095538;28;20204;-73
2023/11/12 12:57:48;;;;;;;3.78;1.65;;;9.00;55.30;;;;;;5095525;28;20189;-73
2023/11/12 13:00:15;;;;;;;4.25;1.73;;;9.00;55.40;;;;;;5095292;28;20691;-73
2023/11/12 13:02:46;;;;;;;2.85;1.60;;;9.00;56.30;;;;;;5095473;28;20247;-73